Time;durP1;ratioP1;P1;durP2;ratioP2;P2;SDS_P1;SDS_P2;PMS_P1;PMS_P2;Temp;Humidity;BMP_temperature;BMP_pressure;BME280_temperature;BME280_humidity;BME280_pressure;Samples;Min_cycle;Max_cycle;Signal;HPM_P1;HPM_P2
2021/06/16 00:02:11;;;;;;;7.43;5.93;;;25.20;96.70;;;;;;5040849;28;20065;-75
2021/06/16 00:04:40;;;;;;;7.88;6.78;;;25.20;96.70;;;;;;5033035;28;20037;-75
2021/06/16 00:07:08;;;;;;;8.45;6.25;;;25.10;96.70;;;;;;5039825;28;20091;-75
2021/06/16 00:09:37;;;;;;;7.50;6.30;;;25.20;96.70;;;;;;5038294;28;20037;-75
2021/06/16 00:12:11;;;;;;;6.60;6.00;;;25.20;96.70;;;;;;5058034;28;20044;-75
2021/06/16 00:14:41;;;;;;;6.20;5.65;;;25.20;96.70;;;;;;5036650;28;20037;-75
2021/06/16 00:17:10;;;;;;;8.52;6.65;;;25.10;96.70;;;;;;5039008;28;20033;-75
2021/06/16 00:19:40;;;;;;;8.05;6.18;;;25.00;96.70;;;;;;5039499;28;21107;-75
2021/06/16 00:22:09;;;;;;;7.05;6.35;;;25.10;96.70;;;;;;5041558;28;20048;-75
2021/06/16 00:24:39;;;;;;;6.28;5.78;;;25.20;96.70;;;;;;5042068;28;20048;-75
2021/06/16 00:27:11;;;;;;;7.90;6.22;;;25.20;96.70;;;;;;5038887;28;20364;-75
2021/06/16 00:29:41;;;;;;;7.68;6.88;;;25.20;96.70;;;;;;5038567;28;20059;-74
2021/06/16 00:32:10;;;;;;;6.97;6.28;;;25.20;96.70;;;;;;5038997;28;20064;-75
2021/06/16 00:34:41;;;;;;;7.05;6.45;;;25.00;96.70;;;;;;5041884;28;20311;-75
2021/06/16 00:37:11;;;;;;;7.90;7.15;;;24.90;96.70;;;;;;5037314;28;20044;-75
2021/06/16 00:39:41;;;;;;;7.03;6.32;;;24.90;96.70;;;;;;5040562;28;20526;-75
2021/06/16 00:42:12;;;;;;;6.75;6.15;;;24.90;96.70;;;;;;5038025;28;20041;-75
2021/06/16 00:44:42;;;;;;;7.35;6.63;;;25.00;96.70;;;;;;5038227;28;20051;-75
2021/06/16 00:47:12;;;;;;;7.03;6.35;;;24.90;96.70;;;;;;5040505;28;20111;-75
2021/06/16 00:49:41;;;;;;;11.98;7.43;;;24.90;96.70;;;;;;5037890;28;20047;-75
2021/06/16 00:52:14;;;;;;;7.32;6.63;;;24.90;96.70;;;;;;5038800;28;20048;-75
2021/06/16 00:54:43;;;;;;;7.50;6.50;;;25.00;96.70;;;;;;5034013;28;20143;-75
2021/06/16 00:57:13;;;;;;;7.50;6.82;;;25.00;96.70;;;;;;5037842;28;20546;-75
2021/06/16 00:59:50;;;;;;;7.65;7.03;;;24.90;96.70;;;;;;5038590;28;20057;-75
2021/06/16 01:02:21;;;;;;;7.40;6.55;;;24.80;96.70;;;;;;5036889;28;20033;-75
2021/06/16 01:04:53;;;;;;;8.40;7.07;;;24.80;96.70;;;;;;5036222;28;20041;-75
2021/06/16 01:07:28;;;;;;;8.15;7.45;;;25.00;96.70;;;;;;5039434;28;20055;-75
2021/06/16 01:10:01;;;;;;;7.95;6.97;;;24.90;96.70;;;;;;5032144;28;20048;-75
2021/06/16 01:12:41;;;;;;;7.80;7.00;;;24.70;96.70;;;;;;5038417;28;20037;-75
2021/06/16 01:15:13;;;;;;;8.48;7.78;;;24.80;96.70;;;;;;5036025;28;20083;-75
2021/06/16 01:17:45;;;;;;;7.85;7.15;;;24.80;96.70;;;;;;5042011;28;20105;-75
2021/06/16 01:20:30;;;;;;;9.38;8.10;;;24.70;96.70;;;;;;5043005;28;20459;-75
2021/06/16 01:23:33;;;;;;;9.65;8.65;;;24.50;96.70;;;;;;5043859;28;20037;-75
2021/06/16 01:26:26;;;;;;;8.57;7.72;;;24.50;96.70;;;;;;5025398;28;20451;-75
2021/06/16 01:29:02;;;;;;;9.77;8.63;;;24.60;96.70;;;;;;5036067;28;20049;-75
2021/06/16 01:31:32;;;;;;;9.77;8.90;;;24.50;96.70;;;;;;5042036;28;20128;-76
2021/06/16 01:34:02;;;;;;;9.52;8.57;;;24.50;96.70;;;;;;5041112;28;20307;-75
2021/06/16 01:36:35;;;;;;;9.73;8.85;;;24.50;96.70;;;;;;5039834;28;20505;-75
2021/06/16 01:39:08;;;;;;;8.48;7.43;;;24.50;96.70;;;;;;5042138;28;20486;-75
2021/06/16 01:41:39;;;;;;;8.55;7.75;;;24.60;96.70;;;;;;5040221;28;20041;-75
2021/06/16 01:44:08;;;;;;;8.70;7.82;;;24.60;96.70;;;;;;5044152;28;20052;-75
2021/06/16 01:46:38;;;;;;;8.18;7.43;;;24.70;96.70;;;;;;5042389;28;20095;-76
2021/06/16 01:49:09;;;;;;;8.48;7.45;;;24.70;96.70;;;;;;5044684;28;20049;-76
2021/06/16 01:51:41;;;;;;;8.02;7.22;;;24.70;96.70;;;;;;5040430;28;20046;-76
2021/06/16 01:54:11;;;;;;;8.57;6.65;;;24.60;96.70;;;;;;5036289;28;20161;-75
2021/06/16 01:56:46;;;;;;;9.18;7.90;;;24.70;96.70;;;;;;5058269;28;20037;-75
2021/06/16 01:59:18;;;;;;;7.40;6.70;;;24.70;96.70;;;;;;5039422;28;20107;-75
2021/06/16 02:01:48;;;;;;;8.60;7.30;;;24.70;96.70;;;;;;5042883;28;20057;-75
2021/06/16 02:04:18;;;;;;;8.18;7.28;;;24.60;96.70;;;;;;5036267;28;20068;-75
2021/06/16 02:06:54;;;;;;;7.85;7.15;;;24.50;96.70;;;;;;5040458;28;20395;-75
2021/06/16 02:09:24;;;;;;;;;;;24.60;96.70;;;;;;5042128;28;20502;-75
2021/06/16 02:11:56;;;;;;;7.88;7.07;;;24.70;96.70;;;;;;5040941;28;19928;-75
2021/06/16 02:14:28;;;;;;;7.20;6.45;;;24.60;96.70;;;;;;5039685;28;20553;-75
2021/06/16 02:17:00;;;;;;;7.82;7.05;;;24.50;96.70;;;;;;5041422;28;20041;-75
2021/06/16 02:19:32;;;;;;;7.43;6.82;;;24.50;96.70;;;;;;5038419;28;20053;-75
2021/06/16 02:22:07;;;;;;;7.50;6.47;;;24.70;96.70;;;;;;5039505;28;20405;-75
2021/06/16 02:24:38;;;;;;;7.35;6.75;;;24.70;96.70;;;;;;5038871;28;20403;-75
2021/06/16 02:27:10;;;;;;;7.35;6.65;;;24.70;96.70;;;;;;5039392;28;20048;-75
2021/06/16 02:29:40;;;;;;;7.32;5.97;;;24.60;96.70;;;;;;5033662;28;20037;-76
2021/06/16 02:32:10;;;;;;;7.25;6.20;;;24.50;96.70;;;;;;5037671;28;20048;-76
2021/06/16 02:34:41;;;;;;;6.57;5.90;;;24.50;96.70;;;;;;5038962;28;20076;-75
2021/06/16 02:37:13;;;;;;;10.63;7.30;;;24.40;96.70;;;;;;5037563;28;20052;-76
2021/06/16 02:39:49;;;;;;;6.65;6.05;;;24.30;96.70;;;;;;5038943;28;20053;-76
2021/06/16 02:42:22;;;;;;;7.60;6.90;;;24.30;96.70;;;;;;5040494;28;20506;-76
2021/06/16 02:44:53;;;;;;;12.88;7.57;;;24.30;96.70;;;;;;5042004;28;20044;-76
2021/06/16 02:47:22;;;;;;;8.68;7.20;;;24.40;96.70;;;;;;5034256;28;20049;-75
2021/06/16 02:49:55;;;;;;;7.55;6.80;;;24.30;96.70;;;;;;5039071;28;20044;-75
2021/06/16 02:52:24;;;;;;;9.40;7.03;;;24.40;96.70;;;;;;5040318;28;20041;-76
2021/06/16 02:55:03;;;;;;;7.80;6.97;;;24.40;96.70;;;;;;5032110;28;20099;-75
2021/06/16 02:57:35;;;;;;;8.45;7.47;;;24.40;96.70;;;;;;5042135;28;20041;-76
2021/06/16 03:00:07;;;;;;;9.00;8.15;;;24.40;96.70;;;;;;5036335;28;20049;-75
2021/06/16 03:02:36;;;;;;;7.88;6.55;;;24.30;96.70;;;;;;5037371;28;20045;-76
2021/06/16 03:05:07;;;;;;;8.10;7.40;;;24.00;96.70;;;;;;5041435;28;20045;-76
2021/06/16 03:07:39;;;;;;;8.23;7.03;;;24.00;96.70;;;;;;5036670;28;20052;-76
2021/06/16 03:10:10;;;;;;;8.18;6.60;;;24.00;96.70;;;;;;5038909;28;20037;-76
2021/06/16 03:12:44;;;;;;;7.68;6.88;;;24.10;96.70;;;;;;5037231;28;20033;-75
2021/06/16 03:15:15;;;;;;;7.68;6.88;;;24.10;96.70;;;;;;5035044;28;20041;-75
2021/06/16 03:17:47;;;;;;;8.32;7.07;;;24.10;96.70;;;;;;5040365;28;20533;-75
2021/06/16 03:20:23;;;;;;;8.07;7.28;;;24.10;96.70;;;;;;5039407;28;20612;-75
2021/06/16 03:23:00;;;;;;;11.07;8.13;;;24.20;96.70;;;;;;5039223;28;20621;-75
2021/06/16 03:25:42;;;;;;;8.63;7.60;;;24.20;96.70;;;;;;5036830;28;20072;-75
2021/06/16 03:28:23;;;;;;;10.00;7.22;;;24.30;96.70;;;;;;5040381;28;20037;-75
2021/06/16 03:30:53;;;;;;;7.88;7.05;;;24.30;96.70;;;;;;5040162;28;20114;-75
2021/06/16 03:33:23;;;;;;;10.52;8.07;;;24.30;96.70;;;;;;5036631;28;20080;-75
2021/06/16 03:35:53;;;;;;;8.98;7.88;;;24.30;96.70;;;;;;5033590;28;20049;-75
2021/06/16 03:38:23;;;;;;;8.68;7.90;;;24.20;96.70;;;;;;5040290;28;20041;-76
2021/06/16 03:40:53;;;;;;;8.63;7.80;;;24.30;96.70;;;;;;5040648;28;20044;-75
2021/06/16 03:43:36;;;;;;;9.05;8.15;;;24.20;96.70;;;;;;5042396;28;20032;-75
2021/06/16 03:46:06;;;;;;;8.55;7.65;;;24.10;96.70;;;;;;5037438;28;20048;-75
2021/06/16 03:48:52;;;;;;;9.57;8.20;;;24.10;96.70;;;;;;5037657;28;20032;-76
2021/06/16 03:51:20;;;;;;;8.40;7.32;;;24.10;96.70;;;;;;5037393;28;20069;-75
2021/06/16 03:53:50;;;;;;;9.48;7.07;;;24.00;96.70;;;;;;5037526;28;20078;-75
2021/06/16 03:56:22;;;;;;;8.73;7.25;;;24.00;96.70;;;;;;5038849;28;20565;-76
2021/06/16 03:58:54;;;;;;;7.85;6.32;;;24.10;96.70;;;;;;5035870;28;20078;-76
2021/06/16 04:01:24;;;;;;;7.65;6.82;;;24.00;96.70;;;;;;5041233;28;20045;-75
2021/06/16 04:03:55;;;;;;;7.30;6.60;;;24.00;96.70;;;;;;5034156;28;20433;-75
2021/06/16 04:06:25;;;;;;;7.93;7.18;;;24.10;96.70;;;;;;5033972;28;20041;-75
2021/06/16 04:08:55;;;;;;;8.63;7.00;;;24.00;96.70;;;;;;5036892;28;20326;-75
2021/06/16 04:11:24;;;;;;;9.07;6.38;;;24.00;96.70;;;;;;5041024;28;20049;-75
2021/06/16 04:13:56;;;;;;;11.40;7.65;;;23.90;96.70;;;;;;5038882;28;20095;-76
2021/06/16 04:16:25;;;;;;;11.07;7.28;;;24.00;96.70;;;;;;5033635;28;20461;-75
2021/06/16 04:18:54;;;;;;;9.82;6.75;;;24.00;96.70;;;;;;5040097;28;20077;-75
2021/06/16 04:21:31;;;;;;;8.55;6.85;;;24.10;96.70;;;;;;5037321;28;20037;-75
2021/06/16 04:24:10;;;;;;;11.48;7.90;;;24.10;96.70;;;;;;5041402;28;20597;-75
2021/06/16 04:26:43;;;;;;;13.60;8.38;;;24.00;96.70;;;;;;5036342;28;20060;-75
2021/06/16 04:29:14;;;;;;;10.63;8.68;;;24.10;96.70;;;;;;5040299;28;20490;-75
2021/06/16 04:31:43;;;;;;;8.93;7.32;;;24.10;96.70;;;;;;5033532;28;20443;-75
2021/06/16 04:34:13;;;;;;;9.15;7.25;;;24.10;96.70;;;;;;5042199;28;20033;-75
2021/06/16 04:36:43;;;;;;;7.97;7.18;;;24.10;96.70;;;;;;5019759;28;20499;-75
2021/06/16 04:39:18;;;;;;;10.35;7.28;;;24.30;96.70;;;;;;5039825;28;20049;-75
2021/06/16 04:41:48;;;;;;;8.55;6.07;;;24.30;96.70;;;;;;5035510;28;20136;-75
2021/06/16 04:44:19;;;;;;;11.05;6.88;;;24.30;96.70;;;;;;5037799;28;20419;-76
2021/06/16 04:46:49;;;;;;;8.25;6.97;;;24.30;96.70;;;;;;5034983;28;20112;-75
2021/06/16 04:49:19;;;;;;;7.40;6.72;;;24.10;96.70;;;;;;5040559;28;20566;-76
2021/06/16 04:51:49;;;;;;;7.28;6.43;;;24.10;96.70;;;;;;5041935;28;20049;-76
2021/06/16 04:54:19;;;;;;;12.18;8.20;;;24.00;96.70;;;;;;5043825;28;20041;-75
2021/06/16 04:56:49;;;;;;;21.63;11.30;;;24.00;96.70;;;;;;5039333;28;20419;-75
2021/06/16 04:59:20;;;;;;;20.25;11.27;;;24.00;96.70;;;;;;5034762;28;20509;-75
2021/06/16 05:01:49;;;;;;;23.35;12.52;;;24.10;96.70;;;;;;5038461;28;20041;-76
2021/06/16 05:04:19;;;;;;;22.52;12.13;;;24.10;96.70;;;;;;5040523;28;20064;-75
2021/06/16 05:06:48;;;;;;;21.83;11.82;;;24.20;96.70;;;;;;5039920;28;20060;-75
2021/06/16 05:09:18;;;;;;;19.75;11.90;;;24.30;96.70;;;;;;5039815;28;20048;-76
2021/06/16 05:11:48;;;;;;;19.02;9.55;;;24.40;96.70;;;;;;5024684;28;20132;-76
2021/06/16 05:14:20;;;;;;;13.77;8.50;;;24.30;96.70;;;;;;5033099;28;20064;-75
2021/06/16 05:16:50;;;;;;;11.45;7.95;;;24.20;96.70;;;;;;5038558;28;20052;-75
2021/06/16 05:19:22;;;;;;;10.77;8.30;;;24.30;96.70;;;;;;5027962;28;20056;-75
2021/06/16 05:21:52;;;;;;;10.95;8.15;;;24.30;96.70;;;;;;5038432;28;20138;-75
2021/06/16 05:24:23;;;;;;;13.32;8.35;;;24.30;96.70;;;;;;5043042;28;20584;-75
2021/06/16 05:26:53;;;;;;;9.93;8.10;;;24.30;96.70;;;;;;5040606;28;20314;-76
2021/06/16 05:29:24;;;;;;;11.13;8.93;;;24.30;96.70;;;;;;5042570;28;20033;-75
2021/06/16 05:31:52;;;;;;;12.52;10.45;;;24.40;96.70;;;;;;5041577;28;20120;-75
2021/06/16 05:34:21;;;;;;;13.63;9.98;;;24.50;96.70;;;;;;5038845;28;20040;-76
2021/06/16 05:36:49;;;;;;;12.32;10.15;;;24.40;96.70;;;;;;5043306;28;20052;-75
2021/06/16 05:39:17;;;;;;;12.02;9.73;;;24.40;96.70;;;;;;5023384;28;20049;-75
2021/06/16 05:41:45;;;;;;;13.80;9.80;;;24.50;96.70;;;;;;5040179;28;20048;-76
2021/06/16 05:44:14;;;;;;;10.32;9.32;;;24.50;96.70;;;;;;5023681;28;20049;-75
2021/06/16 05:46:45;;;;;;;11.52;9.60;;;24.50;96.70;;;;;;5043716;28;20052;-75
2021/06/16 05:49:14;;;;;;;11.98;9.27;;;24.50;96.70;;;;;;5024921;28;20072;-75
2021/06/16 05:51:42;;;;;;;9.77;8.77;;;24.50;96.70;;;;;;5039445;28;20431;-75
2021/06/16 05:54:11;;;;;;;9.73;8.73;;;24.50;96.70;;;;;;5040760;28;20124;-77
2021/06/16 05:56:40;;;;;;;13.00;9.77;;;24.60;96.70;;;;;;5040918;28;20043;-77
2021/06/16 05:59:08;;;;;;;12.05;9.50;;;24.60;96.70;;;;;;5041659;28;20044;-77
2021/06/16 06:01:37;;;;;;;10.57;9.05;;;24.70;96.70;;;;;;5038955;28;20029;-76
2021/06/16 06:04:07;;;;;;;15.18;8.90;;;24.70;96.70;;;;;;5035565;28;20490;-77
2021/06/16 06:06:35;;;;;;;11.70;9.02;;;24.80;96.70;;;;;;5042578;28;20076;-77
2021/06/16 06:09:06;;;;;;;10.75;9.77;;;24.80;96.70;;;;;;5039393;28;20317;-77
2021/06/16 06:11:36;;;;;;;10.07;9.02;;;24.80;96.70;;;;;;5039365;28;20041;-77
2021/06/16 06:14:05;;;;;;;9.65;8.68;;;24.80;96.70;;;;;;5038030;28;20045;-77
2021/06/16 06:16:33;;;;;;;12.05;10.23;;;24.90;96.70;;;;;;5038178;28;20037;-77
2021/06/16 06:19:02;;;;;;;11.95;10.20;;;24.90;96.70;;;;;;5038490;28;20054;-77
2021/06/16 06:21:32;;;;;;;15.38;9.68;;;24.90;96.70;;;;;;5039941;28;20264;-77
2021/06/16 06:24:02;;;;;;;12.45;9.57;;;24.90;96.70;;;;;;5041240;28;20458;-77
2021/06/16 06:26:32;;;;;;;10.40;9.40;;;25.00;96.70;;;;;;5041898;28;20132;-76
2021/06/16 06:29:00;;;;;;;13.77;10.20;;;25.10;96.70;;;;;;5024549;28;20075;-77
2021/06/16 06:31:29;;;;;;;12.60;10.15;;;25.20;96.70;;;;;;5042355;28;20407;-77
2021/06/16 06:33:58;;;;;;;13.95;10.40;;;25.10;96.70;;;;;;5039866;28;20052;-77
2021/06/16 06:36:32;;;;;;;11.45;9.40;;;25.20;96.70;;;;;;5039634;28;20103;-77
2021/06/16 06:39:01;;;;;;;11.25;9.93;;;25.20;96.70;;;;;;5039924;28;20141;-76
2021/06/16 06:41:29;;;;;;;10.75;9.65;;;25.20;96.70;;;;;;5044370;28;20437;-77
2021/06/16 06:44:03;;;;;;;10.23;9.23;;;25.20;96.70;;;;;;5040456;28;20332;-76
2021/06/16 06:46:31;;;;;;;11.27;10.02;;;25.20;96.70;;;;;;5040037;28;20110;-77
2021/06/16 06:48:59;;;;;;;12.75;10.20;;;25.20;96.70;;;;;;5042344;28;20048;-77
2021/06/16 06:51:28;;;;;;;12.15;9.75;;;25.20;96.70;;;;;;5040534;28;20115;-77
2021/06/16 06:53:58;;;;;;;10.68;9.57;;;25.20;96.70;;;;;;5041996;28;20495;-77
2021/06/16 06:56:26;;;;;;;9.45;8.35;;;25.20;96.70;;;;;;5038894;28;20122;-76
2021/06/16 06:58:54;;;;;;;12.15;9.38;;;25.30;96.70;;;;;;5040282;28;20561;-77
2021/06/16 07:01:23;;;;;;;9.95;7.63;;;25.50;96.70;;;;;;5037001;28;20128;-77
2021/06/16 07:03:51;;;;;;;9.60;8.60;;;25.50;96.70;;;;;;5036945;28;20503;-77
2021/06/16 07:06:19;;;;;;;11.45;8.32;;;25.60;96.70;;;;;;5037910;28;20060;-77
2021/06/16 07:08:48;;;;;;;11.40;8.55;;;25.60;96.70;;;;;;5039285;28;20037;-77
2021/06/16 07:11:18;;;;;;;9.73;7.80;;;25.60;96.70;;;;;;5035758;28;20549;-76
2021/06/16 07:13:46;;;;;;;9.43;8.00;;;25.60;96.70;;;;;;5052638;28;20042;-76
2021/06/16 07:16:14;;;;;;;9.32;8.50;;;25.60;96.70;;;;;;5041211;28;20161;-77
2021/06/16 07:18:43;;;;;;;8.85;7.93;;;25.60;96.70;;;;;;5036637;28;20046;-77
2021/06/16 07:21:15;;;;;;;11.23;9.02;;;25.60;96.70;;;;;;5040096;28;20135;-77
2021/06/16 07:23:44;;;;;;;10.13;9.00;;;25.60;96.70;;;;;;5034639;28;20371;-77
2021/06/16 07:26:12;;;;;;;13.80;10.18;;;25.80;96.70;;;;;;5038431;28;20041;-77
2021/06/16 07:28:42;;;;;;;11.35;8.88;;;25.80;96.70;;;;;;5041810;28;20033;-77
2021/06/16 07:31:10;;;;;;;9.07;7.93;;;25.90;96.70;;;;;;5039611;28;20040;-77
2021/06/16 07:33:38;;;;;;;9.32;8.30;;;25.90;96.70;;;;;;5040969;28;20036;-77
2021/06/16 07:36:07;;;;;;;10.50;8.43;;;25.90;96.70;;;;;;5039972;28;20049;-77
2021/06/16 07:38:35;;;;;;;10.02;9.00;;;25.90;96.70;;;;;;5040779;28;20095;-77
2021/06/16 07:41:04;;;;;;;10.32;9.05;;;25.90;96.70;;;;;;5039711;28;20043;-77
2021/06/16 07:43:32;;;;;;;8.23;7.43;;;25.90;96.70;;;;;;5040178;28;20395;-77
2021/06/16 07:46:02;;;;;;;8.98;8.18;;;25.90;96.70;;;;;;5038408;28;20055;-77
2021/06/16 07:48:31;;;;;;;9.85;8.82;;;26.00;96.70;;;;;;5039732;28;20044;-76
2021/06/16 07:50:59;;;;;;;13.25;10.32;;;26.10;96.70;;;;;;5038312;28;20041;-77
2021/06/16 07:53:27;;;;;;;10.60;9.45;;;26.00;96.70;;;;;;5037603;28;20516;-77
2021/06/16 07:55:55;;;;;;;13.10;9.82;;;26.10;96.70;;;;;;5037987;28;21288;-78
2021/06/16 07:58:25;;;;;;;16.25;8.95;;;26.20;96.70;;;;;;5042075;28;20435;-77
2021/06/16 08:00:53;;;;;;;10.40;8.38;;;26.30;96.70;;;;;;5037817;28;20045;-78
2021/06/16 08:03:23;;;;;;;8.60;7.68;;;26.30;96.70;;;;;;5041837;28;20122;-76
2021/06/16 08:05:51;;;;;;;10.93;8.65;;;26.40;96.70;;;;;;5034515;28;20037;-77
2021/06/16 08:08:31;;;;;;;9.32;8.50;;;26.40;96.70;;;;;;5040130;28;20049;-77
2021/06/16 08:11:01;;;;;;;9.63;7.45;;;26.60;96.70;;;;;;5041602;28;20080;-76
2021/06/16 08:13:30;;;;;;;9.43;7.95;;;26.70;96.70;;;;;;5037144;28;20049;-76
2021/06/16 08:15:59;;;;;;;10.55;8.05;;;26.60;96.70;;;;;;5035581;28;20095;-76
2021/06/16 08:18:29;;;;;;;8.32;7.55;;;26.60;96.70;;;;;;5040450;28;20041;-76
2021/06/16 08:20:58;;;;;;;8.02;7.28;;;26.70;96.70;;;;;;5036529;28;20048;-76
2021/06/16 08:23:26;;;;;;;8.18;7.40;;;26.80;96.70;;;;;;5039574;28;20045;-77
2021/06/16 08:25:55;;;;;;;7.93;7.13;;;26.90;96.70;;;;;;5038289;28;20036;-76
2021/06/16 08:28:23;;;;;;;8.65;7.50;;;26.90;96.70;;;;;;5039526;28;20037;-76
2021/06/16 08:30:51;;;;;;;8.55;7.05;;;27.00;96.70;;;;;;5023376;28;20531;-76
2021/06/16 08:33:20;;;;;;;8.23;7.10;;;27.10;96.70;;;;;;5037005;28;20114;-76
2021/06/16 08:35:50;;;;;;;7.68;6.97;;;27.20;96.70;;;;;;5039784;28;20052;-77
2021/06/16 08:38:18;;;;;;;7.47;6.68;;;27.30;96.70;;;;;;5035119;28;20557;-76
2021/06/16 08:40:47;;;;;;;7.03;6.28;;;27.30;96.70;;;;;;5038911;28;20049;-77
2021/06/16 08:43:15;;;;;;;8.48;6.93;;;27.30;96.70;;;;;;5035614;28;20586;-77
2021/06/16 08:45:44;;;;;;;8.18;7.05;;;27.30;96.70;;;;;;5036769;28;20466;-76
2021/06/16 08:48:13;;;;;;;11.02;7.13;;;27.30;96.70;;;;;;5021345;28;20148;-76
2021/06/16 08:50:41;;;;;;;8.90;7.07;;;27.30;96.70;;;;;;5040612;28;20952;-76
2021/06/16 08:53:11;;;;;;;7.25;6.30;;;27.30;96.70;;;;;;5036680;28;20041;-77
2021/06/16 08:55:39;;;;;;;7.60;6.80;;;27.30;96.70;;;;;;5040632;28;20033;-77
2021/06/16 08:58:07;;;;;;;8.57;6.72;;;27.30;96.70;;;;;;5040652;28;20103;-76
2021/06/16 09:00:35;;;;;;;9.60;6.45;;;27.30;96.70;;;;;;5039957;28;20046;-77
2021/06/16 09:03:04;;;;;;;7.30;6.32;;;27.30;96.70;;;;;;5022751;28;20123;-76
2021/06/16 09:05:37;;;;;;;8.80;7.13;;;27.40;96.70;;;;;;5038521;28;20043;-76
2021/06/16 09:08:17;;;;;;;7.35;6.65;;;27.40;96.70;;;;;;5037469;28;20057;-77
2021/06/16 09:10:48;;;;;;;9.68;6.63;;;27.50;96.70;;;;;;5039123;28;20116;-76
2021/06/16 09:13:29;;;;;;;7.40;6.70;;;27.60;96.70;;;;;;5038442;28;20534;-76
2021/06/16 09:15:58;;;;;;;8.70;6.43;;;27.60;96.70;;;;;;5037265;28;20037;-76
2021/06/16 09:18:27;;;;;;;9.63;6.75;;;27.80;96.70;;;;;;5038869;28;20513;-77
2021/06/16 09:20:57;;;;;;;7.70;6.65;;;27.80;96.70;;;;;;5037081;28;20509;-77
2021/06/16 09:23:29;;;;;;;8.68;6.57;;;27.90;96.70;;;;;;5036465;28;20041;-77
2021/06/16 09:26:09;;;;;;;12.55;8.02;;;28.00;96.70;;;;;;5036163;28;20073;-76
2021/06/16 09:28:39;;;;;;;9.98;7.20;;;28.20;96.70;;;;;;5038368;28;20071;-77
2021/06/16 09:31:10;;;;;;;9.05;6.55;;;28.30;96.70;;;;;;5039716;28;20045;-77
2021/06/16 09:33:39;;;;;;;12.00;7.20;;;28.40;96.70;;;;;;5037409;28;20153;-74
2021/06/16 09:36:13;;;;;;;7.63;6.85;;;28.30;96.70;;;;;;5036724;28;20123;-75
2021/06/16 09:38:48;;;;;;;10.55;7.22;;;28.40;95.40;;;;;;5042284;28;20037;-75
2021/06/16 09:41:19;;;;;;;10.30;6.90;;;28.50;96.00;;;;;;5043638;28;20037;-74
2021/06/16 09:43:49;;;;;;;10.93;7.05;;;28.60;95.90;;;;;;5040310;28;20049;-74
2021/06/16 09:46:18;;;;;;;9.10;7.68;;;28.60;96.00;;;;;;5042142;28;20041;-74
2021/06/16 09:48:46;;;;;;;7.93;7.07;;;28.60;95.20;;;;;;5044448;28;20037;-74
2021/06/16 09:51:18;;;;;;;10.30;7.82;;;28.70;95.60;;;;;;5043357;28;20052;-74
2021/06/16 09:53:59;;;;;;;12.00;8.30;;;28.90;95.50;;;;;;5040033;28;20131;-77
2021/06/16 09:56:30;;;;;;;9.38;7.53;;;28.90;95.20;;;;;;5039781;28;20046;-77
2021/06/16 09:58:58;;;;;;;9.45;7.43;;;28.80;94.80;;;;;;5038229;28;20049;-77
2021/06/16 10:01:51;;;;;;;7.93;7.13;;;29.00;95.20;;;;;;5042235;28;20469;-76
2021/06/16 10:04:39;;;;;;;10.35;7.28;;;29.10;95.40;;;;;;5039989;28;20064;-78
2021/06/16 10:07:15;;;;;;;7.22;6.50;;;29.10;95.10;;;;;;5041330;28;20064;-77
2021/06/16 10:10:00;;;;;;;9.73;6.82;;;29.20;94.60;;;;;;5037748;28;20495;-77
2021/06/16 10:12:30;;;;;;;7.82;6.40;;;29.30;93.60;;;;;;5038717;28;20465;-77
2021/06/16 10:15:00;;;;;;;7.78;7.10;;;29.40;93.90;;;;;;5036278;28;20045;-77
2021/06/16 10:17:28;;;;;;;7.30;6.53;;;29.40;93.00;;;;;;5039715;28;20121;-77
2021/06/16 10:19:57;;;;;;;7.88;7.07;;;29.50;93.30;;;;;;5037531;28;20095;-78
2021/06/16 10:22:25;;;;;;;7.53;5.90;;;29.60;92.70;;;;;;5023811;28;20051;-78
2021/06/16 10:24:55;;;;;;;7.18;6.57;;;29.70;92.90;;;;;;5042350;28;20042;-77
2021/06/16 10:27:30;;;;;;;8.93;7.03;;;29.70;92.10;;;;;;5043536;28;20045;-77
2021/06/16 10:30:05;;;;;;;7.32;6.35;;;29.80;91.40;;;;;;5039362;28;20090;-77
2021/06/16 10:32:38;;;;;;;7.22;6.13;;;29.80;91.40;;;;;;5037183;28;20048;-77
2021/06/16 10:35:08;;;;;;;8.50;5.55;;;30.00;91.60;;;;;;5037282;28;20041;-77
2021/06/16 10:37:38;;;;;;;6.70;6.10;;;30.00;90.50;;;;;;5041519;28;20055;-77
2021/06/16 10:40:43;;;;;;;8.27;6.40;;;30.10;90.90;;;;;;5041300;28;20148;-75
2021/06/16 10:43:29;;;;;;;6.80;6.00;;;30.10;90.60;;;;;;5040287;28;20044;-75
2021/06/16 10:46:07;;;;;;;7.63;6.45;;;30.10;90.90;;;;;;5024848;28;20056;-75
2021/06/16 10:48:59;;;;;;;6.78;6.07;;;30.30;89.20;;;;;;5039792;28;20037;-75
2021/06/16 10:51:36;;;;;;;6.65;6.05;;;30.50;89.40;;;;;;5040382;28;20469;-75
2021/06/16 10:54:19;;;;;;;6.22;5.63;;;30.70;89.00;;;;;;5055765;28;20068;-74
2021/06/16 10:56:54;;;;;;;7.00;6.30;;;30.60;88.10;;;;;;5048798;28;20049;-74
2021/06/16 10:59:59;;;;;;;7.15;6.15;;;30.70;88.00;;;;;;5040581;28;20061;-73
2021/06/16 11:02:56;;;;;;;6.60;5.97;;;30.80;88.00;;;;;;5038271;28;20560;-74
2021/06/16 11:05:28;;;;;;;6.82;5.82;;;31.00;87.30;;;;;;5042205;28;20041;-74
2021/06/16 11:07:56;;;;;;;6.55;5.95;;;31.20;85.90;;;;;;5039112;28;20057;-74
2021/06/16 11:10:51;;;;;;;6.50;5.85;;;31.30;85.70;;;;;;5043057;28;20497;-74
2021/06/16 11:13:47;;;;;;;7.75;6.03;;;31.20;85.80;;;;;;5035317;28;20120;-74
2021/06/16 11:16:51;;;;;;;8.07;5.90;;;31.30;85.80;;;;;;4989459;28;20487;-74
2021/06/16 11:19:41;;;;;;;5.28;4.78;;;31.50;85.90;;;;;;5038261;28;20095;-74
2021/06/16 11:22:33;;;;;;;8.65;5.80;;;31.60;86.40;;;;;;5038734;28;20055;-74
2021/06/16 11:25:13;;;;;;;7.47;5.88;;;31.70;85.20;;;;;;5040575;28;20045;-74
2021/06/16 11:28:01;;;;;;;6.22;5.63;;;31.70;85.10;;;;;;5035319;28;20048;-74
2021/06/16 11:30:40;;;;;;;8.10;5.72;;;31.70;84.30;;;;;;5036441;28;20502;-74
2021/06/16 11:33:28;;;;;;;8.10;5.22;;;31.60;84.30;;;;;;5039129;28;20128;-75
2021/06/16 11:36:01;;;;;;;5.88;5.30;;;31.70;84.30;;;;;;5039576;28;20258;-75
2021/06/16 11:38:32;;;;;;;6.85;6.10;;;31.90;83.80;;;;;;5034268;28;20457;-75
2021/06/16 11:41:07;;;;;;;7.05;5.57;;;31.80;84.20;;;;;;5051973;28;20919;-75
2021/06/16 11:43:37;;;;;;;6.33;5.83;;;31.90;84.20;;;;;;5039604;28;20048;-75
2021/06/16 11:46:13;;;;;;;6.85;5.82;;;32.20;84.10;;;;;;5038593;28;20299;-75
2021/06/16 11:48:43;;;;;;;7.20;5.28;;;32.50;83.80;;;;;;5022868;28;20045;-75
2021/06/16 11:51:31;;;;;;;6.97;6.30;;;32.50;82.60;;;;;;5014657;28;20131;-74
2021/06/16 11:54:22;;;;;;;6.25;5.68;;;32.50;82.30;;;;;;5013976;28;20121;-74
2021/06/16 11:56:54;;;;;;;6.18;5.60;;;32.50;83.20;;;;;;4998112;28;20051;-74
2021/06/16 11:59:47;;;;;;;6.43;5.80;;;32.60;81.20;;;;;;5000232;28;20049;-74
2021/06/16 12:02:20;;;;;;;5.90;5.40;;;32.70;80.90;;;;;;5001649;28;20091;-74
2021/06/16 12:04:55;;;;;;;9.52;5.93;;;32.80;80.80;;;;;;4995857;28;20569;-74
2021/06/16 12:07:25;;;;;;;6.32;5.50;;;33.00;81.40;;;;;;5000140;28;20136;-74
2021/06/16 12:09:56;;;;;;;6.35;5.75;;;32.70;80.70;;;;;;5002406;28;20184;-73
2021/06/16 12:12:25;;;;;;;7.00;5.70;;;32.70;80.60;;;;;;4999808;28;20499;-74
2021/06/16 12:15:09;;;;;;;7.47;6.07;;;32.90;80.00;;;;;;4997678;28;20050;-73
2021/06/16 12:18:00;;;;;;;6.93;6.10;;;32.90;80.10;;;;;;5011452;28;20049;-73
2021/06/16 12:20:31;;;;;;;7.05;5.30;;;32.90;80.10;;;;;;5016234;28;20410;-74
2021/06/16 12:23:00;;;;;;;5.22;4.78;;;33.20;80.40;;;;;;5024905;28;20147;-74
2021/06/16 12:25:31;;;;;;;7.07;5.75;;;33.20;78.70;;;;;;5033352;28;20096;-74
2021/06/16 12:28:01;;;;;;;6.18;5.63;;;33.20;80.70;;;;;;5030719;28;20172;-74
2021/06/16 12:30:31;;;;;;;6.05;5.55;;;33.10;80.40;;;;;;5051669;28;20096;-74
2021/06/16 12:33:19;;;;;;;6.32;5.72;;;33.00;79.10;;;;;;5032585;28;20095;-74
2021/06/16 12:35:57;;;;;;;6.28;5.53;;;33.10;79.70;;;;;;5018770;28;20142;-74
2021/06/16 12:38:37;;;;;;;6.20;5.80;;;33.20;81.40;;;;;;5014973;28;20760;-74
2021/06/16 12:41:32;;;;;;;6.90;5.65;;;32.90;81.00;;;;;;5036264;28;20120;-74
2021/06/16 12:44:20;;;;;;;6.40;5.78;;;32.90;81.30;;;;;;5037247;28;20040;-74
2021/06/16 12:46:53;;;;;;;6.72;6.13;;;32.90;81.30;;;;;;5037855;28;20611;-74
2021/06/16 12:49:24;;;;;;;8.88;6.38;;;32.60;82.10;;;;;;5029934;28;20045;-74
2021/06/16 12:51:53;;;;;;;7.32;5.70;;;32.40;81.90;;;;;;5030846;28;20498;-75
2021/06/16 12:54:26;;;;;;;6.32;5.65;;;32.20;82.50;;;;;;5037512;28;20148;-75
2021/06/16 12:57:07;;;;;;;6.53;5.45;;;32.00;82.40;;;;;;5034325;28;20057;-75
2021/06/16 12:59:42;;;;;;;6.60;6.03;;;32.00;82.50;;;;;;5038457;28;20048;-76
2021/06/16 13:02:12;;;;;;;6.35;5.75;;;32.30;82.80;;;;;;5035495;28;20037;-76
2021/06/16 13:05:00;;;;;;;6.07;5.68;;;32.70;82.80;;;;;;5041350;28;20069;-74
2021/06/16 13:07:44;;;;;;;6.63;5.80;;;33.10;82.40;;;;;;5039318;28;20470;-73
2021/06/16 13:10:15;;;;;;;6.95;5.88;;;33.20;82.20;;;;;;5041136;28;20037;-74
2021/06/16 13:12:54;;;;;;;6.55;6.03;;;32.80;83.10;;;;;;5035178;28;20041;-73